Time;durP1;ratioP1;P1;durP2;ratioP2;P2;SDS_P1;SDS_P2;PMS_P1;PMS_P2;Temp;Humidity;BMP_temperature;BMP_pressure;BME280_temperature;BME280_humidity;BME280_pressure;Samples;Min_cycle;Max_cycle;Signal;HPM_P1;HPM_P2
2022/11/18 00:01:12;;;;;;;0.50;0.50;;;;;;;;;;6169157;23;20960;-74
2022/11/18 00:03:38;;;;;;;0.30;0.30;;;;;;;;;;6168879;23;20398;-74
2022/11/18 00:06:05;;;;;;;0.52;0.52;;;;;;;;;;6168806;23;20463;-75
2022/11/18 00:08:33;;;;;;;0.60;0.60;;;;;;;;;;6168472;23;20862;-75
2022/11/18 00:11:04;;;;;;;1.65;1.33;;;;;;;;;;6168380;23;21132;-75
2022/11/18 00:16:15;;;;;;;0.95;0.90;;;;;;;;;;6167286;23;20470;-74
2022/11/18 00:18:41;;;;;;;1.10;1.00;;;;;;;;;;6168634;23;20913;-74
2022/11/18 00:21:08;;;;;;;0.73;0.73;;;;;;;;;;6168726;23;20376;-75
2022/11/18 00:23:34;;;;;;;0.88;0.82;;;;;;;;;;6195603;23;20414;-74
2022/11/18 00:26:02;;;;;;;0.90;0.80;;;;;;;;;;6164906;23;20835;-75
2022/11/18 00:28:28;;;;;;;0.93;0.90;;;;;;;;;;6164083;23;20790;-74
2022/11/18 00:30:59;;;;;;;1.43;1.33;;;;;;;;;;6165998;23;20818;-75
2022/11/18 00:33:25;;;;;;;1.30;1.15;;;;;;;;;;6170527;23;20402;-75
2022/11/18 00:35:55;;;;;;;0.73;0.73;;;;;;;;;;6171152;23;20831;-75
2022/11/18 00:38:21;;;;;;;0.80;0.80;;;;;;;;;;6170900;23;20405;-75
2022/11/18 00:40:47;;;;;;;0.85;0.82;;;;;;;;;;6170976;23;20846;-75
2022/11/18 00:43:13;;;;;;;0.73;0.68;;;;;;;;;;6169541;23;20391;-75
2022/11/18 00:45:39;;;;;;;0.70;0.68;;;;;;;;;;6167765;23;20394;-75
2022/11/18 00:48:05;;;;;;;0.50;0.50;;;;;;;;;;6171062;23;20454;-74
2022/11/18 00:50:32;;;;;;;0.85;0.85;;;;;;;;;;6170971;23;20380;-75
2022/11/18 00:52:58;;;;;;;1.50;1.15;;;;;;;;;;6171569;23;20389;-74
2022/11/18 00:55:24;;;;;;;0.95;0.95;;;;;;;;;;6169805;23;20470;-75
2022/11/18 00:57:50;;;;;;;1.50;1.40;;;;;;;;;;6169314;23;20380;-75
2022/11/18 01:00:16;;;;;;;1.30;1.10;;;;;;;;;;6171389;23;20903;-74
2022/11/18 01:02:42;;;;;;;0.70;0.70;;;;;;;;;;6171620;23;20862;-74
2022/11/18 01:05:08;;;;;;;1.02;0.93;;;;;;;;;;6170374;23;20371;-74
2022/11/18 01:07:34;;;;;;;0.63;0.60;;;;;;;;;;6170545;23;20913;-75
2022/11/18 01:10:00;;;;;;;0.98;0.90;;;;;;;;;;6170757;23;20372;-75
2022/11/18 01:15:11;;;;;;;0.80;0.80;;;;;;;;;;6170237;23;20540;-74
2022/11/18 01:17:37;;;;;;;1.08;0.98;;;;;;;;;;6170288;23;20368;-75
2022/11/18 01:20:03;;;;;;;0.75;0.75;;;;;;;;;;6171167;23;20372;-75
2022/11/18 01:22:29;;;;;;;0.50;0.50;;;;;;;;;;6171202;23;20612;-75
2022/11/18 01:24:55;;;;;;;0.73;0.73;;;;;;;;;;6198302;23;20831;-75
2022/11/18 01:27:21;;;;;;;0.93;0.82;;;;;;;;;;6169701;23;20449;-74
2022/11/18 01:29:47;;;;;;;0.63;0.63;;;;;;;;;;6196636;23;20861;-74
2022/11/18 01:32:13;;;;;;;0.90;0.90;;;;;;;;;;6170752;23;20546;-74
2022/11/18 01:34:39;;;;;;;0.40;0.40;;;;;;;;;;6171233;23;20420;-75
2022/11/18 01:37:05;;;;;;;0.60;0.60;;;;;;;;;;6169666;23;20387;-75
2022/11/18 01:39:31;;;;;;;0.40;0.40;;;;;;;;;;6170813;23;20383;-75
2022/11/18 01:41:58;;;;;;;1.10;1.00;;;;;;;;;;6170082;23;20376;-75
2022/11/18 01:44:42;;;;;;;0.40;0.40;;;;;;;;;;6170347;23;20414;-74
2022/11/18 01:47:08;;;;;;;0.75;0.75;;;;;;;;;;6169564;23;20375;-74
2022/11/18 01:49:35;;;;;;;0.70;0.70;;;;;;;;;;6165632;23;20375;-74
2022/11/18 01:52:01;;;;;;;0.60;0.60;;;;;;;;;;6169399;23;20411;-75
2022/11/18 01:54:30;;;;;;;0.68;0.68;;;;;;;;;;6169014;23;20403;-75
2022/11/18 01:57:00;;;;;;;0.68;0.68;;;;;;;;;;6170154;23;20523;-74
2022/11/18 01:59:29;;;;;;;1.23;1.13;;;;;;;;;;6167562;23;20852;-75
2022/11/18 02:01:55;;;;;;;0.65;0.65;;;;;;;;;;6196856;23;20372;-74
2022/11/18 02:04:23;;;;;;;0.50;0.50;;;;;;;;;;6170285;23;20797;-75
2022/11/18 02:06:49;;;;;;;0.70;0.70;;;;;;;;;;6196075;23;20399;-74
2022/11/18 02:09:15;;;;;;;0.60;0.60;;;;;;;;;;6196618;23;20371;-75
2022/11/18 02:11:53;;;;;;;0.80;0.80;;;;;;;;;;6169727;23;20515;-74
2022/11/18 02:14:30;;;;;;;0.88;0.80;;;;;;;;;;6168685;23;20627;-75
2022/11/18 02:17:14;;;;;;;1.20;1.10;;;;;;;;;;6169771;23;21319;-75
2022/11/18 02:19:48;;;;;;;3.70;1.13;;;;;;;;;;6170079;23;20941;-74
2022/11/18 02:22:34;;;;;;;356.27;260.13;;;;;;;;;;6169401;23;20437;-75
2022/11/18 02:25:06;;;;;;;458.33;328.77;;;;;;;;;;6169219;23;20393;-75
2022/11/18 02:27:41;;;;;;;554.30;393.67;;;;;;;;;;6168891;23;20507;-74
2022/11/18 02:30:09;;;;;;;549.38;381.50;;;;;;;;;;6144943;23;20758;-74
2022/11/18 02:32:35;;;;;;;539.95;374.63;;;;;;;;;;6169409;23;20747;-74
2022/11/18 02:35:06;;;;;;;508.33;354.40;;;;;;;;;;6168607;23;20375;-75
2022/11/18 02:37:50;;;;;;;12.70;8.60;;;;;;;;;;6144459;23;20387;-74
2022/11/18 02:40:21;;;;;;;269.77;194.90;;;;;;;;;;6168929;23;20469;-74
2022/11/18 02:42:50;;;;;;;549.97;385.88;;;;;;;;;;6169775;23;20848;-74
2022/11/18 02:45:17;;;;;;;549.65;380.15;;;;;;;;;;6168953;23;20438;-74
2022/11/18 02:47:45;;;;;;;548.53;379.45;;;;;;;;;;6195742;23;20368;-74
2022/11/18 02:50:14;;;;;;;548.10;381.17;;;;;;;;;;6144743;23;20411;-74
2022/11/18 02:52:41;;;;;;;513.83;350.65;;;;;;;;;;6143968;23;20415;-75
2022/11/18 02:55:08;;;;;;;214.07;150.48;;;;;;;;;;6168193;23;20781;-75
2022/11/18 02:57:35;;;;;;;1.65;1.55;;;;;;;;;;6169241;23;21032;-75
2022/11/18 03:00:02;;;;;;;0.87;0.80;;;;;;;;;;6196058;23;20755;-74
2022/11/18 03:02:28;;;;;;;1.40;1.30;;;;;;;;;;6168203;23;20391;-74
2022/11/18 03:04:56;;;;;;;1.15;1.05;;;;;;;;;;6169410;23;20384;-75
2022/11/18 03:07:27;;;;;;;1.30;1.20;;;;;;;;;;6169652;23;20442;-74
2022/11/18 03:09:53;;;;;;;1.80;1.70;;;;;;;;;;6169562;23;20535;-75
2022/11/18 03:12:22;;;;;;;1.48;1.20;;;;;;;;;;6167720;23;20399;-75
2022/11/18 03:15:12;;;;;;;1.67;1.47;;;;;;;;;;6169032;23;20383;-75
2022/11/18 03:17:44;;;;;;;546.60;386.95;;;;;;;;;;6150793;23;20421;-74
2022/11/18 03:20:31;;;;;;;549.33;382.30;;;;;;;;;;6169310;23;20513;-74
2022/11/18 03:23:03;;;;;;;548.95;378.20;;;;;;;;;;6168852;23;20383;-74
2022/11/18 03:25:34;;;;;;;549.33;376.45;;;;;;;;;;6168900;23;20375;-74
2022/11/18 03:28:06;;;;;;;550.58;380.33;;;;;;;;;;6168558;23;20379;-75
2022/11/18 03:30:33;;;;;;;549.40;376.08;;;;;;;;;;6169441;23;20474;-75
2022/11/18 03:33:05;;;;;;;548.42;374.73;;;;;;;;;;6169184;23;20794;-75
2022/11/18 03:35:32;;;;;;;547.88;374.95;;;;;;;;;;6169035;23;20371;-75
2022/11/18 03:38:10;;;;;;;548.40;373.45;;;;;;;;;;6168370;23;20379;-74
2022/11/18 03:40:38;;;;;;;1.15;1.05;;;;;;;;;;6168567;23;20442;-75
2022/11/18 03:43:08;;;;;;;1.02;0.93;;;;;;;;;;6168962;23;20391;-75
2022/11/18 03:45:36;;;;;;;1.50;1.38;;;;;;;;;;6169927;23;20383;-74
2022/11/18 03:48:14;;;;;;;527.13;366.00;;;;;;;;;;6169463;23;20394;-75
2022/11/18 03:50:44;;;;;;;0.40;0.40;;;;;;;;;;6168776;23;20394;-74
2022/11/18 03:53:10;;;;;;;0.30;0.30;;;;;;;;;;6169307;23;20484;-75
2022/11/18 03:55:38;;;;;;;0.30;0.30;;;;;;;;;;6168209;23;20408;-74
2022/11/18 03:58:09;;;;;;;0.50;0.50;;;;;;;;;;6144718;23;20417;-74
2022/11/18 04:00:39;;;;;;;0.50;0.50;;;;;;;;;;6168691;23;20387;-74
2022/11/18 04:03:05;;;;;;;0.80;0.80;;;;;;;;;;6169208;23;20747;-74
2022/11/18 04:05:36;;;;;;;0.50;0.50;;;;;;;;;;6170274;23;20498;-75
2022/11/18 04:08:04;;;;;;;0.50;0.50;;;;;;;;;;6170905;23;20387;-74
2022/11/18 04:10:30;;;;;;;0.47;0.47;;;;;;;;;;6171630;23;20419;-75
2022/11/18 04:13:02;;;;;;;0.60;0.60;;;;;;;;;;6170131;23;20997;-74
2022/11/18 04:15:30;;;;;;;0.60;0.60;;;;;;;;;;6169545;23;20371;-75
2022/11/18 04:17:56;;;;;;;0.50;0.50;;;;;;;;;;6170884;23;20374;-74
2022/11/18 04:20:22;;;;;;;0.80;0.80;;;;;;;;;;6170695;23;20377;-74
2022/11/18 04:22:48;;;;;;;1.93;1.20;;;;;;;;;;6171133;23;20450;-74
2022/11/18 04:25:15;;;;;;;0.52;0.52;;;;;;;;;;6170851;23;20732;-74
2022/11/18 04:27:41;;;;;;;0.60;0.60;;;;;;;;;;6171472;23;20376;-74
2022/11/18 04:30:07;;;;;;;0.70;0.70;;;;;;;;;;6171109;23;20846;-74
2022/11/18 04:32:33;;;;;;;0.60;0.60;;;;;;;;;;6170553;23;20392;-75
2022/11/18 04:35:00;;;;;;;1.00;0.90;;;;;;;;;;6170765;23;20372;-75
2022/11/18 04:37:26;;;;;;;1.20;1.10;;;;;;;;;;6169858;23;20411;-74
2022/11/18 04:39:52;;;;;;;511.33;348.48;;;;;;;;;;6146553;23;20375;-75
2022/11/18 04:42:18;;;;;;;499.98;336.17;;;;;;;;;;6171075;23;20379;-75
2022/11/18 04:44:44;;;;;;;539.03;359.30;;;;;;;;;;6170168;23;20466;-75
2022/11/18 04:47:10;;;;;;;547.97;366.70;;;;;;;;;;6169567;23;20861;-75
2022/11/18 04:49:36;;;;;;;544.88;359.83;;;;;;;;;;6170974;23;20851;-74
2022/11/18 04:52:02;;;;;;;545.90;362.43;;;;;;;;;;6196801;23;20455;-74
2022/11/18 04:54:28;;;;;;;545.42;359.92;;;;;;;;;;6170605;23;20400;-74
2022/11/18 04:56:55;;;;;;;547.30;365.65;;;;;;;;;;6169423;23;20377;-75
2022/11/18 04:59:23;;;;;;;547.65;366.48;;;;;;;;;;6169898;23;20372;-75
2022/11/18 05:01:49;;;;;;;535.63;352.75;;;;;;;;;;6169942;23;20664;-74
2022/11/18 05:04:17;;;;;;;545.72;364.10;;;;;;;;;;6170398;23;20380;-74
2022/11/18 05:06:43;;;;;;;546.67;363.13;;;;;;;;;;6170037;23;20379;-74
2022/11/18 05:09:10;;;;;;;546.95;364.70;;;;;;;;;;6170085;23;20699;-74
2022/11/18 05:14:20;;;;;;;547.90;367.10;;;;;;;;;;6171031;23;20387;-74
2022/11/18 05:16:46;;;;;;;547.75;365.75;;;;;;;;;;6170480;23;20382;-74
2022/11/18 05:19:12;;;;;;;546.70;366.48;;;;;;;;;;6169273;23;20403;-75
2022/11/18 05:21:38;;;;;;;549.00;368.48;;;;;;;;;;6170980;23;20751;-75
2022/11/18 05:24:05;;;;;;;548.53;368.23;;;;;;;;;;6170290;23;20371;-75
2022/11/18 05:26:31;;;;;;;154.48;106.13;;;;;;;;;;6169927;23;20399;-75
2022/11/18 05:28:57;;;;;;;0.30;0.30;;;;;;;;;;6170509;23;20375;-75
2022/11/18 05:31:23;;;;;;;515.00;346.52;;;;;;;;;;6170094;23;20399;-74
2022/11/18 05:33:49;;;;;;;535.90;356.45;;;;;;;;;;6169185;23;20387;-75
2022/11/18 05:36:16;;;;;;;539.90;362.63;;;;;;;;;;6169720;23;20384;-75
2022/11/18 05:38:42;;;;;;;540.67;357.63;;;;;;;;;;6196372;23;20372;-74
2022/11/18 05:41:09;;;;;;;546.80;360.60;;;;;;;;;;6169497;23;20412;-74
2022/11/18 05:43:35;;;;;;;549.23;364.53;;;;;;;;;;6143441;23;20382;-74
2022/11/18 05:46:02;;;;;;;546.38;360.10;;;;;;;;;;6168940;23;20847;-75
2022/11/18 05:48:28;;;;;;;497.95;327.65;;;;;;;;;;6168854;23;20859;-75
2022/11/18 05:50:54;;;;;;;2.40;2.03;;;;;;;;;;6169474;23;20407;-76
2022/11/18 05:53:22;;;;;;;3.20;2.95;;;;;;;;;;6169566;23;20390;-75
2022/11/18 05:55:54;;;;;;;2.00;1.60;;;;;;;;;;6170434;23;20387;-74
2022/11/18 05:58:20;;;;;;;1.70;1.52;;;;;;;;;;6169944;23;20863;-75
2022/11/18 06:00:47;;;;;;;2.43;2.10;;;;;;;;;;6169427;23;20683;-75
2022/11/18 06:03:17;;;;;;;1.90;1.70;;;;;;;;;;6169432;23;20375;-75
2022/11/18 06:05:43;;;;;;;3.85;3.55;;;;;;;;;;6168954;23;20834;-75
2022/11/18 06:08:11;;;;;;;1.33;1.23;;;;;;;;;;6170428;23;20746;-75
2022/11/18 06:10:38;;;;;;;2.67;2.38;;;;;;;;;;6168988;23;20378;-74
2022/11/18 06:13:07;;;;;;;1.05;0.95;;;;;;;;;;6171109;23;20747;-74
2022/11/18 06:15:36;;;;;;;0.98;0.90;;;;;;;;;;6169769;23;20403;-74
2022/11/18 06:18:11;;;;;;;543.13;359.67;;;;;;;;;;6170222;23;20706;-74
2022/11/18 06:20:38;;;;;;;2.47;2.05;;;;;;;;;;6169651;23;20376;-74
2022/11/18 06:23:04;;;;;;;403.08;271.27;;;;;;;;;;6144240;23;20395;-74
2022/11/18 06:25:31;;;;;;;542.65;350.48;;;;;;;;;;6167553;23;20711;-75
2022/11/18 06:27:58;;;;;;;114.90;75.18;;;;;;;;;;6169563;23;20806;-74
2022/11/18 06:30:24;;;;;;;543.80;351.45;;;;;;;;;;6168914;23;20461;-75
2022/11/18 06:32:50;;;;;;;540.38;342.48;;;;;;;;;;6168715;23;20399;-75
2022/11/18 06:35:17;;;;;;;360.40;231.17;;;;;;;;;;6169591;23;20772;-75
2022/11/18 06:37:43;;;;;;;543.67;347.67;;;;;;;;;;6196645;23;20367;-75
2022/11/18 06:40:09;;;;;;;523.30;331.88;;;;;;;;;;6168068;23;21201;-75
2022/11/18 06:45:20;;;;;;;0.70;0.70;;;;;;;;;;6194829;23;20374;-74
2022/11/18 06:47:46;;;;;;;0.70;0.70;;;;;;;;;;6168175;23;20463;-76
2022/11/18 06:50:12;;;;;;;1.48;1.38;;;;;;;;;;6144610;23;20918;-74
2022/11/18 06:52:38;;;;;;;256.63;173.88;;;;;;;;;;6195971;23;20383;-74
2022/11/18 06:55:07;;;;;;;500.80;321.48;;;;;;;;;;6169828;23;20478;-74
2022/11/18 06:57:33;;;;;;;545.58;355.50;;;;;;;;;;6169310;23;20437;-74
2022/11/18 06:59:59;;;;;;;545.25;352.15;;;;;;;;;;6169601;23;20418;-74
2022/11/18 07:02:25;;;;;;;545.47;352.23;;;;;;;;;;6170572;23;20411;-74
2022/11/18 07:04:51;;;;;;;6.25;5.88;;;;;;;;;;6169675;23;20486;-74
2022/11/18 07:07:17;;;;;;;425.03;297.27;;;;;;;;;;6170126;23;20524;-74
2022/11/18 07:09:43;;;;;;;529.95;349.83;;;;;;;;;;6169674;23;20408;-74
2022/11/18 07:12:09;;;;;;;545.60;351.63;;;;;;;;;;6169768;23;20410;-74
2022/11/18 07:14:35;;;;;;;543.88;347.20;;;;;;;;;;6169478;23;20382;-74
2022/11/18 07:17:01;;;;;;;3.25;1.50;;;;;;;;;;6170172;23;20375;-74
2022/11/18 07:19:27;;;;;;;2.10;1.90;;;;;;;;;;6196236;23;20819;-74
2022/11/18 07:21:53;;;;;;;1.20;1.10;;;;;;;;;;6170179;23;20459;-74
2022/11/18 07:24:20;;;;;;;545.30;361.35;;;;;;;;;;6168757;23;20380;-74
2022/11/18 07:26:46;;;;;;;532.20;343.35;;;;;;;;;;6169521;23;20387;-74
2022/11/18 07:29:12;;;;;;;1.00;0.90;;;;;;;;;;6169986;23;20712;-74
2022/11/18 07:31:38;;;;;;;1.50;1.40;;;;;;;;;;6170101;23;20402;-74
2022/11/18 07:34:05;;;;;;;1.40;1.20;;;;;;;;;;6169456;23;20815;-74
2022/11/18 07:36:31;;;;;;;2.80;2.58;;;;;;;;;;6168015;23;20379;-74
2022/11/18 07:39:00;;;;;;;282.58;186.82;;;;;;;;;;6195899;23;20430;-74
2022/11/18 07:41:28;;;;;;;541.55;344.60;;;;;;;;;;6170791;23;20375;-74
2022/11/18 07:43:54;;;;;;;542.30;342.55;;;;;;;;;;6197781;23;20857;-74
2022/11/18 07:46:22;;;;;;;543.30;342.85;;;;;;;;;;6171055;23;20380;-74
2022/11/18 07:48:49;;;;;;;224.80;144.90;;;;;;;;;;6171516;23;20375;-74
2022/11/18 07:51:16;;;;;;;544.28;349.15;;;;;;;;;;6170559;23;20449;-74
2022/11/18 07:53:42;;;;;;;542.40;344.23;;;;;;;;;;6171251;23;20743;-74
2022/11/18 07:56:09;;;;;;;541.30;340.05;;;;;;;;;;6170980;23;20414;-74
2022/11/18 07:58:35;;;;;;;543.35;343.60;;;;;;;;;;6170534;23;20503;-74
2022/11/18 08:01:07;;;;;;;542.00;340.90;;;;;;;;;;6169966;23;20755;-74
2022/11/18 08:03:33;;;;;;;543.53;340.03;;;;;;;;;;6171362;23;20411;-74
2022/11/18 08:06:00;;;;;;;541.42;340.50;;;;;;;;;;6170706;23;20522;-74
2022/11/18 08:08:29;;;;;;;542.33;340.77;;;;;;;;;;6171475;23;20382;-74
2022/11/18 08:10:59;;;;;;;542.83;340.75;;;;;;;;;;6170576;23;20503;-74
2022/11/18 08:13:26;;;;;;;16.48;15.50;;;;;;;;;;6171295;23;20866;-74
2022/11/18 08:15:52;;;;;;;0.40;0.40;;;;;;;;;;6171673;23;20699;-74
2022/11/18 08:18:18;;;;;;;0.20;0.20;;;;;;;;;;6171373;23;20378;-74
2022/11/18 08:20:44;;;;;;;0.10;0.10;;;;;;;;;;6171494;23;20371;-74
2022/11/18 08:23:11;;;;;;;0.40;0.40;;;;;;;;;;6171424;23;20382;-74
2022/11/18 08:25:37;;;;;;;0.10;0.10;;;;;;;;;;6146725;23;20664;-73
2022/11/18 08:28:03;;;;;;;0.10;0.10;;;;;;;;;;6197751;23;20855;-74
2022/11/18 08:30:29;;;;;;;0.10;0.10;;;;;;;;;;6171265;23;20992;-74
2022/11/18 08:32:55;;;;;;;0.40;0.40;;;;;;;;;;6171048;23;20792;-74
2022/11/18 08:35:21;;;;;;;0.30;0.30;;;;;;;;;;6171083;23;20763;-74
2022/11/18 08:37:47;;;;;;;0.10;0.10;;;;;;;;;;6170335;23;20438;-73
2022/11/18 08:40:13;;;;;;;0.40;0.40;;;;;;;;;;6171096;23;20398;-74
2022/11/18 08:42:39;;;;;;;10.27;6.97;;;;;;;;;;6198051;23;20450;-74
2022/11/18 08:45:09;;;;;;;230.60;146.05;;;;;;;;;;6170641;23;20384;-74
2022/11/18 08:47:35;;;;;;;224.55;140.07;;;;;;;;;;6170545;23;20379;-74
2022/11/18 08:50:02;;;;;;;512.13;323.47;;;;;;;;;;6170693;23;20456;-74
2022/11/18 08:52:28;;;;;;;207.75;127.78;;;;;;;;;;6170648;23;20399;-74
2022/11/18 08:54:54;;;;;;;536.17;336.38;;;;;;;;;;6145679;23;20376;-74
2022/11/18 08:57:21;;;;;;;540.70;339.60;;;;;;;;;;6196975;23;20371;-74
2022/11/18 08:59:47;;;;;;;542.42;343.48;;;;;;;;;;6145515;23;20455;-74
2022/11/18 09:02:18;;;;;;;541.95;336.42;;;;;;;;;;6197920;23;20415;-74
2022/11/18 09:04:44;;;;;;;541.90;339.83;;;;;;;;;;6197414;23;20364;-74
2022/11/18 09:07:10;;;;;;;543.28;344.80;;;;;;;;;;6170440;23;20765;-74
2022/11/18 09:09:36;;;;;;;513.67;332.10;;;;;;;;;;6169997;23;20462;-74
2022/11/18 09:12:02;;;;;;;541.70;340.60;;;;;;;;;;6197403;23;20392;-74
2022/11/18 09:14:28;;;;;;;542.80;342.65;;;;;;;;;;6197279;23;20370;-74
2022/11/18 09:16:54;;;;;;;29.33;27.50;;;;;;;;;;6170743;23;20376;-74
2022/11/18 09:19:20;;;;;;;111.55;79.55;;;;;;;;;;6146392;23;21210;-74
2022/11/18 09:21:46;;;;;;;391.60;278.93;;;;;;;;;;6197274;23;20442;-74
2022/11/18 09:24:12;;;;;;;527.13;338.88;;;;;;;;;;6170442;23;20446;-74
2022/11/18 09:26:38;;;;;;;544.88;348.23;;;;;;;;;;6170205;23;20427;-74
2022/11/18 09:29:04;;;;;;;542.65;343.17;;;;;;;;;;6170456;23;20378;-74
2022/11/18 09:31:30;;;;;;;390.42;302.48;;;;;;;;;;6170528;23;20431;-73
2022/11/18 09:33:59;;;;;;;0.10;0.10;;;;;;;;;;6145612;23;20474;-74
2022/11/18 09:36:25;;;;;;;0.10;0.10;;;;;;;;;;6170948;23;20415;-74
2022/11/18 09:38:52;;;;;;;0.20;0.20;;;;;;;;;;6171015;23;20384;-74
2022/11/18 09:41:36;;;;;;;0.60;0.50;;;;;;;;;;6170889;23;20714;-74
2022/11/18 09:44:21;;;;;;;0.25;0.25;;;;;;;;;;6169601;23;20924;-74
2022/11/18 09:46:47;;;;;;;41.83;19.50;;;;;;;;;;6170515;23;20379;-74
2022/11/18 09:49:26;;;;;;;0.10;0.10;;;;;;;;;;6196444;23;20767;-74
2022/11/18 09:51:53;;;;;;;0.10;0.10;;;;;;;;;;6197356;23;20392;-74
2022/11/18 09:54:23;;;;;;;0.10;0.10;;;;;;;;;;6170815;23;20383;-74
2022/11/18 09:56:51;;;;;;;112.43;68.05;;;;;;;;;;6169006;23;20456;-74
2022/11/18 09:59:18;;;;;;;516.33;313.93;;;;;;;;;;6169872;23;20771;-75
2022/11/18 10:01:44;;;;;;;369.92;227.55;;;;;;;;;;6170604;23;20775;-74
2022/11/18 10:04:18;;;;;;;506.10;317.45;;;;;;;;;;6170309;23;20383;-74
2022/11/18 10:06:45;;;;;;;0.20;0.20;;;;;;;;;;6196483;23;20870;-74
2022/11/18 10:09:22;;;;;;;181.85;114.70;;;;;;;;;;6169930;23;20408;-75
2022/11/18 10:11:57;;;;;;;493.33;352.45;;;;;;;;;;6169267;23;20399;-75
2022/11/18 10:14:33;;;;;;;540.65;340.95;;;;;;;;;;6196490;23;20386;-75
2022/11/18 10:17:11;;;;;;;541.97;340.20;;;;;;;;;;6169691;23;20386;-74
2022/11/18 10:19:42;;;;;;;541.33;338.25;;;;;;;;;;6169755;23;20732;-74
2022/11/18 10:22:17;;;;;;;531.83;336.45;;;;;;;;;;6168961;23;20501;-74
2022/11/18 10:24:48;;;;;;;543.55;344.80;;;;;;;;;;6170089;23;21320;-74
2022/11/18 10:27:15;;;;;;;543.50;342.50;;;;;;;;;;6169737;23;20378;-75
2022/11/18 10:29:42;;;;;;;540.90;336.95;;;;;;;;;;6170329;23;20371;-74
2022/11/18 10:32:11;;;;;;;543.78;341.63;;;;;;;;;;6169074;23;20391;-74
2022/11/18 10:34:46;;;;;;;542.57;339.23;;;;;;;;;;6196422;23;20372;-75
2022/11/18 10:37:26;;;;;;;39.67;25.23;;;;;;;;;;6195886;23;20847;-74
2022/11/18 10:39:53;;;;;;;0.10;0.10;;;;;;;;;;6170082;23;20835;-74
2022/11/18 10:42:24;;;;;;;0.10;0.10;;;;;;;;;;6169902;23;20492;-74
2022/11/18 10:44:50;;;;;;;0.10;0.10;;;;;;;;;;6195859;23;20475;-74
2022/11/18 10:47:19;;;;;;;0.10;0.10;;;;;;;;;;6196160;23;20419;-75
2022/11/18 10:49:45;;;;;;;0.50;0.50;;;;;;;;;;6170537;23;20387;-74
2022/11/18 10:52:13;;;;;;;0.10;0.10;;;;;;;;;;6196475;23;20399;-75
2022/11/18 10:54:39;;;;;;;0.20;0.20;;;;;;;;;;6196528;23;20433;-75
2022/11/18 10:57:05;;;;;;;0.10;0.10;;;;;;;;;;6169812;23;20716;-75
2022/11/18 10:59:37;;;;;;;0.10;0.10;;;;;;;;;;6170556;23;20379;-75
2022/11/18 11:02:13;;;;;;;0.30;0.30;;;;;;;;;;6169532;23;20379;-75
2022/11/18 11:04:40;;;;;;;0.30;0.30;;;;;;;;;;6170158;23;20390;-75
2022/11/18 11:07:15;;;;;;;0.50;0.50;;;;;;;;;;6170358;23;20863;-75
2022/11/18 11:09:41;;;;;;;0.10;0.10;;;;;;;;;;6170074;23;20758;-75
2022/11/18 11:12:10;;;;;;;0.70;0.70;;;;;;;;;;6169801;23;20616;-75
2022/11/18 11:14:47;;;;;;;0.10;0.10;;;;;;;;;;6169794;23;20376;-75
2022/11/18 11:17:15;;;;;;;0.20;0.20;;;;;;;;;;6196722;23;20384;-75
2022/11/18 11:19:41;;;;;;;0.70;0.50;;;;;;;;;;6169994;23;20454;-76
2022/11/18 11:22:11;;;;;;;0.20;0.20;;;;;;;;;;6196326;23;20706;-74
2022/11/18 11:24:37;;;;;;;0.65;0.65;;;;;;;;;;6170132;23;20404;-75
2022/11/18 11:27:23;;;;;;;1.20;0.65;;;;;;;;;;6145105;23;20486;-74
2022/11/18 11:29:52;;;;;;;46.55;43.95;;;;;;;;;;6169959;23;20380;-74
2022/11/18 11:32:26;;;;;;;534.85;335.08;;;;;;;;;;6169834;23;21179;-74
2022/11/18 11:35:10;;;;;;;0.10;0.10;;;;;;;;;;6169223;23;20453;-74
2022/11/18 11:37:48;;;;;;;0.10;0.10;;;;;;;;;;6170036;23;20375;-75
2022/11/18 11:40:25;;;;;;;0.03;0.03;;;;;;;;;;6169825;23;20375;-74
2022/11/18 11:42:56;;;;;;;0.15;0.15;;;;;;;;;;6196247;23;20372;-75
2022/11/18 11:45:26;;;;;;;2.58;1.50;;;;;;;;;;6169496;23;20462;-75
2022/11/18 11:47:55;;;;;;;0.20;0.20;;;;;;;;;;6196431;23;20367;-74
2022/11/18 11:50:52;;;;;;;0.30;0.30;;;;;;;;;;6196190;23;20371;-75
2022/11/18 11:53:37;;;;;;;0.35;0.35;;;;;;;;;;6196524;23;20400;-75
2022/11/18 11:56:06;;;;;;;537.70;334.10;;;;;;;;;;6168794;23;20898;-75
2022/11/18 11:58:47;;;;;;;535.73;316.80;;;;;;;;;;6169472;23;20372;-75
2022/11/18 12:01:35;;;;;;;540.73;321.00;;;;;;;;;;6169279;23;20386;-75
2022/11/18 12:04:04;;;;;;;539.45;316.55;;;;;;;;;;6169677;23;20923;-75
2022/11/18 12:06:31;;;;;;;0.10;0.10;;;;;;;;;;6168690;23;20946;-75
2022/11/18 12:09:00;;;;;;;0.10;0.10;;;;;;;;;;6169501;23;20840;-75
2022/11/18 12:11:31;;;;;;;0.90;0.50;;;;;;;;;;6196737;23;20387;-75
2022/11/18 12:14:19;;;;;;;0.10;0.10;;;;;;;;;;6196726;23;20731;-74
2022/11/18 12:16:50;;;;;;;0.10;0.10;;;;;;;;;;6169559;23;20371;-76
2022/11/18 12:19:21;;;;;;;1.10;1.00;;;;;;;;;;6170174;23;20677;-75
2022/11/18 12:21:47;;;;;;;0.20;0.20;;;;;;;;;;6170119;23;21032;-74
2022/11/18 12:24:19;;;;;;;0.20;0.20;;;;;;;;;;6169653;23;20859;-75
2022/11/18 12:26:49;;;;;;;0.35;0.20;;;;;;;;;;6145587;23;20379;-75
2022/11/18 12:29:18;;;;;;;0.10;0.10;;;;;;;;;;6171260;23;20371;-75
2022/11/18 12:31:57;;;;;;;0.10;0.10;;;;;;;;;;6170987;23;20420;-76
2022/11/18 12:34:40;;;;;;;0.20;0.20;;;;;;;;;;6172163;23;20384;-77
2022/11/18 12:37:24;;;;;;;0.43;0.43;;;;;;;;;;6171242;23;20450;-76
2022/11/18 12:39:57;;;;;;;0.28;0.28;;;;;;;;;;6170845;23;20463;-77
2022/11/18 12:45:37;;;;;;;0.50;0.50;;;;;;;;;;6171798;23;20379;-76
2022/11/18 12:48:04;;;;;;;0.80;0.80;;;;;;;;;;6170783;23;20872;-77
2022/11/18 12:50:48;;;;;;;0.25;0.25;;;;;;;;;;6171146;23;20372;-77
2022/11/18 12:53:33;;;;;;;0.10;0.10;;;;;;;;;;6170989;23;20494;-77
2022/11/18 12:55:59;;;;;;;0.10;0.10;;;;;;;;;;6171383;23;20399;-77
2022/11/18 12:58:26;;;;;;;1.00;0.50;;;;;;;;;;6170824;23;20454;-77
2022/11/18 13:01:06;;;;;;;0.20;0.20;;;;;;;;;;6171035;23;20488;-77
2022/11/18 13:03:33;;;;;;;0.50;0.50;;;;;;;;;;6146727;23;20383;-77
2022/11/18 13:06:05;;;;;;;0.30;0.30;;;;;;;;;;6145601;23;20463;-78
2022/11/18 13:08:31;;;;;;;0.40;0.40;;;;;;;;;;6171136;23;20380;-77
2022/11/18 13:17:50;;;;;;;0.10;0.10;;;;;;;;;;6197957;23;20371;-81
2022/11/18 13:19:24;;;;;;;0.20;0.20;;;;;;;;;;6169843;23;20450;-77
2022/11/18 13:24:46;;;;;;;0.50;0.50;;;;;;;;;;6169562;23;20838;-78
2022/11/18 13:27:27;;;;;;;1.10;1.05;;;;;;;;;;6169869;23;20383;-78
2022/11/18 13:29:59;;;;;;;0.10;0.10;;;;;;;;;;6196368;23;20822;-77
2022/11/18 13:32:26;;;;;;;0.10;0.10;;;;;;;;;;6169640;23;21098;-78
2022/11/18 13:34:57;;;;;;;1.07;1.03;;;;;;;;;;6170108;23;20442;-78
2022/11/18 13:37:23;;;;;;;0.10;0.10;;;;;;;;;;6196955;23;20801;-78
2022/11/18 13:39:49;;;;;;;0.40;0.40;;;;;;;;;;6169830;23;20455;-78
2022/11/18 13:42:20;;;;;;;0.10;0.10;;;;;;;;;;6169347;23;20396;-78
2022/11/18 13:44:51;;;;;;;1.87;1.23;;;;;;;;;;6170176;23;20384;-78
2022/11/18 13:47:24;;;;;;;129.65;117.55;;;;;;;;;;6169031;23;20956;-78
2022/11/18 13:49:50;;;;;;;0.10;0.10;;;;;;;;;;6145122;23;20390;-78
2022/11/18 13:52:18;;;;;;;0.90;0.70;;;;;;;;;;6169101;23;20805;-78
2022/11/18 13:54:45;;;;;;;0.15;0.15;;;;;;;;;;6169787;23;20376;-77
2022/11/18 13:57:19;;;;;;;153.50;142.03;;;;;;;;;;6168755;23;20438;-77
2022/11/18 13:59:46;;;;;;;0.10;0.10;;;;;;;;;;6168472;23;20376;-78
2022/11/18 14:02:13;;;;;;;0.40;0.40;;;;;;;;;;6168308;23;20930;-77
2022/11/18 14:04:47;;;;;;;0.13;0.13;;;;;;;;;;6169882;23;20379;-77
2022/11/18 14:07:24;;;;;;;0.15;0.15;;;;;;;;;;6168762;23;20391;-77
2022/11/18 14:09:54;;;;;;;0.10;0.10;;;;;;;;;;6169428;23;20706;-77
2022/11/18 14:12:33;;;;;;;6.70;0.70;;;;;;;;;;6169910;23;20415;-77
2022/11/18 14:15:19;;;;;;;0.10;0.10;;;;;;;;;;6169489;23;20986;-77
2022/11/18 14:17:55;;;;;;;0.10;0.10;;;;;;;;;;6169366;23;20640;-77
2022/11/18 14:20:22;;;;;;;0.10;0.10;;;;;;;;;;6168454;23;20490;-78
2022/11/18 14:22:52;;;;;;;0.10;0.10;;;;;;;;;;6169634;23;20534;-77
2022/11/18 14:25:20;;;;;;;0.20;0.20;;;;;;;;;;6169220;23;20814;-77
2022/11/18 14:27:48;;;;;;;0.10;0.10;;;;;;;;;;6169107;23;20457;-77
2022/11/18 14:30:26;;;;;;;1.70;1.20;;;;;;;;;;6144520;23;20542;-78
2022/11/18 14:33:07;;;;;;;0.20;0.20;;;;;;;;;;6168043;23;21337;-77
2022/11/18 14:35:34;;;;;;;0.10;0.10;;;;;;;;;;6169611;23;20698;-77
2022/11/18 14:38:00;;;;;;;0.40;0.40;;;;;;;;;;6169138;23;20390;-78
2022/11/18 14:40:26;;;;;;;0.10;0.10;;;;;;;;;;6169385;23;20454;-78
2022/11/18 14:42:52;;;;;;;0.05;0.05;;;;;;;;;;6143534;23;20830;-78
2022/11/18 14:45:18;;;;;;;0.10;0.10;;;;;;;;;;6168557;23;20372;-78
2022/11/18 14:47:44;;;;;;;1.00;0.50;;;;;;;;;;6169394;23;20510;-78
2022/11/18 14:50:16;;;;;;;1.00;1.00;;;;;;;;;;6169484;23;20850;-78
2022/11/18 14:52:42;;;;;;;0.20;0.20;;;;;;;;;;6168754;23;20418;-77
2022/11/18 14:55:08;;;;;;;0.10;0.10;;;;;;;;;;6169536;23;20749;-78
2022/11/18 14:57:34;;;;;;;0.20;0.20;;;;;;;;;;6168102;23;20770;-78